Time;durP1;ratioP1;P1;durP2;ratioP2;P2;SDS_P1;SDS_P2;PMS_P1;PMS_P2;Temp;Humidity;BMP_temperature;BMP_pressure;BME280_temperature;BME280_humidity;BME280_pressure;Samples;Min_cycle;Max_cycle;Signal;HPM_P1;HPM_P2
2023/10/29 00:01:27;;;;;;;2.17;0.50;;;;;;;16.09;49.18;150115.00;4996847;28;20241;-53
2023/10/29 00:03:53;;;;;;;2.37;0.40;;;;;;;16.17;48.42;150135.00;4988722;28;20237;-53
2023/10/29 00:06:20;;;;;;;2.23;0.73;;;;;;;16.17;49.40;150133.72;4989261;28;20243;-52
2023/10/29 00:08:47;;;;;;;1.10;0.50;;;;;;;16.07;49.47;150111.22;5000588;28;20233;-53
2023/10/29 00:11:15;;;;;;;3.60;0.70;;;;;;;16.16;48.59;150131.22;4999131;28;20287;-52
2023/10/29 00:13:41;;;;;;;1.10;0.50;;;;;;;16.07;49.58;150110.00;4984508;28;20224;-55
2023/10/29 00:16:08;;;;;;;0.80;0.37;;;;;;;16.15;49.10;150128.72;4993178;28;20230;-52
2023/10/29 00:18:34;;;;;;;1.63;0.60;;;;;;;16.13;49.26;150125.00;5000927;28;20419;-53
2023/10/29 00:21:01;;;;;;;2.23;0.60;;;;;;;16.23;48.82;150148.72;4992982;28;20239;-52
2023/10/29 00:23:27;;;;;;;0.30;0.20;;;;;;;16.13;49.81;150123.72;4984202;28;20234;-53
2023/10/29 00:25:54;;;;;;;3.43;0.50;;;;;;;16.29;48.77;150163.72;4988005;28;20269;-54
2023/10/29 00:28:22;;;;;;;3.50;0.60;;;;;;;16.25;49.14;150153.72;4989936;28;20232;-54
2023/10/29 00:30:48;;;;;;;0.60;0.40;;;;;;;16.31;49.89;150168.72;4985693;28;20282;-53
2023/10/29 00:33:16;;;;;;;0.93;0.40;;;;;;;16.23;50.20;150148.72;4989458;28;20247;-53
2023/10/29 00:35:43;;;;;;;1.30;0.43;;;;;;;16.32;50.13;150171.22;4986012;28;20244;-54
2023/10/29 00:38:09;;;;;;;3.33;0.50;;;;;;;16.25;50.14;150153.72;4974841;28;20242;-53
2023/10/29 00:40:37;;;;;;;1.23;0.40;;;;;;;16.33;49.50;150173.72;4985870;28;20234;-53
2023/10/29 00:43:04;;;;;;;0.97;0.73;;;;;;;16.23;50.91;150148.72;4987265;28;20247;-54
2023/10/29 00:45:36;;;;;;;0.73;0.40;;;;;;;16.14;50.52;150127.50;4976255;28;20280;-55
2023/10/29 00:48:04;;;;;;;1.80;0.40;;;;;;;16.09;51.96;150116.22;4989828;28;20342;-55
2023/10/29 00:50:32;;;;;;;0.60;0.30;;;;;;;16.09;50.73;150115.00;5004593;28;20246;-55
2023/10/29 00:52:59;;;;;;;0.93;0.37;;;;;;;15.92;52.52;150073.72;4989483;28;20342;-51
2023/10/29 00:55:26;;;;;;;0.50;0.30;;;;;;;15.82;53.23;150049.94;4981938;28;20229;-55
2023/10/29 00:57:54;;;;;;;1.50;0.33;;;;;;;15.76;53.57;150036.22;5004127;28;20272;-54
2023/10/29 01:00:23;;;;;;;0.30;0.27;;;;;;;15.96;51.91;150083.72;4982388;28;20231;-53
2023/10/29 01:02:51;;;;;;;1.73;0.50;;;;;;;15.96;51.55;150082.50;5002223;28;20329;-52
2023/10/29 01:05:18;;;;;;;3.77;0.40;;;;;;;16.06;50.78;150107.50;5000670;28;20291;-52
2023/10/29 01:07:51;;;;;;;1.77;0.40;;;;;;;15.94;52.50;150078.72;5003298;28;20241;-52
2023/10/29 01:10:18;;;;;;;2.83;0.47;;;;;;;15.86;52.67;150058.72;5007033;28;20326;-52
2023/10/29 01:12:50;;;;;;;1.40;0.40;;;;;;;15.93;50.69;150076.22;5002538;28;20775;-55
2023/10/29 01:15:17;;;;;;;2.33;0.50;;;;;;;15.82;52.29;150048.72;4981367;28;20595;-55
2023/10/29 01:17:44;;;;;;;1.53;0.50;;;;;;;15.88;51.66;150065.00;4984481;28;20286;-52
2023/10/29 01:20:13;;;;;;;2.40;0.77;;;;;;;15.91;52.35;150071.22;4989802;28;20247;-53
2023/10/29 01:22:39;;;;;;;1.43;0.40;;;;;;;16.00;52.16;150093.72;5004463;28;20741;-53
2023/10/29 01:25:09;;;;;;;1.33;0.50;;;;;;;16.11;50.40;150120.00;4991453;28;20234;-50
2023/10/29 01:27:36;;;;;;;1.13;0.30;;;;;;;16.14;50.26;150126.22;4969794;28;20311;-53
2023/10/29 01:30:03;;;;;;;0.40;0.30;;;;;;;16.03;50.80;150100.00;4985502;28;20233;-52
2023/10/29 01:32:31;;;;;;;1.13;0.40;;;;;;;16.16;49.08;150132.50;4998502;28;20618;-56
2023/10/29 01:34:57;;;;;;;1.10;0.40;;;;;;;16.22;49.42;150147.50;4987773;28;20249;-56
2023/10/29 01:37:25;;;;;;;2.00;0.40;;;;;;;16.13;49.47;150125.00;4987760;28;20307;-53
2023/10/29 01:39:52;;;;;;;0.60;0.27;;;;;;;16.18;48.94;150136.22;4977428;28;20319;-53
2023/10/29 01:42:19;;;;;;;1.20;0.40;;;;;;;16.28;48.56;150161.22;4966664;28;20251;-52
2023/10/29 01:44:45;;;;;;;0.77;0.40;;;;;;;16.27;48.64;150157.50;4967658;28;20239;-51
2023/10/29 01:47:12;;;;;;;1.27;0.40;;;;;;;16.23;48.96;150148.72;5006210;28;20589;-53
2023/10/29 01:49:38;;;;;;;1.47;0.30;;;;;;;16.19;48.96;150140.00;4976415;28;20222;-55
2023/10/29 01:52:05;;;;;;;2.30;0.30;;;;;;;16.14;49.10;150127.50;4969101;28;20642;-53
2023/10/29 01:54:33;;;;;;;0.77;0.30;;;;;;;16.02;49.81;150097.50;4965776;28;20227;-55
2023/10/29 01:57:00;;;;;;;2.10;0.30;;;;;;;16.00;48.92;150092.50;5004684;28;20265;-53
2023/10/29 01:59:26;;;;;;;1.40;0.43;;;;;;;16.06;47.99;150108.72;4972782;28;20750;-54
2023/10/29 02:01:53;;;;;;;1.70;0.30;;;;;;;16.23;47.15;150150.00;4982409;28;20235;-52
2023/10/29 02:04:26;;;;;;;2.40;0.40;;;;;;;16.23;46.83;150148.72;4992801;28;20245;-51
2023/10/29 02:06:52;;;;;;;2.10;0.33;;;;;;;16.23;46.81;150148.72;4974250;28;20230;-55
2023/10/29 02:09:20;;;;;;;1.03;0.30;;;;;;;16.09;47.82;150115.00;4975449;28;20235;-53
2023/10/29 02:11:47;;;;;;;0.30;0.30;;;;;;;16.15;47.79;150128.72;4985320;28;20226;-52
2023/10/29 02:14:14;;;;;;;1.50;0.50;;;;;;;16.34;45.69;150176.22;4987702;28;20618;-52
2023/10/29 02:16:41;;;;;;;0.90;0.20;;;;;;;16.37;44.43;150183.72;4983819;28;20705;-54
2023/10/29 02:19:08;;;;;;;1.27;0.40;;;;;;;16.44;44.17;150199.94;4981649;28;20741;-55
2023/10/29 02:21:35;;;;;;;0.93;0.40;;;;;;;16.60;42.94;150237.44;5001001;28;20230;-52
2023/10/29 02:24:03;;;;;;;0.70;0.50;;;;;;;16.72;42.81;150266.22;4987596;28;20760;-55
2023/10/29 02:26:29;;;;;;;2.33;0.50;;;;;;;16.67;43.37;150256.22;5003191;28;20598;-53
2023/10/29 02:28:56;;;;;;;0.53;0.20;;;;;;;16.67;42.48;150256.22;4998649;28;20235;-52
2023/10/29 02:31:23;;;;;;;0.93;0.40;;;;;;;16.66;42.96;150253.72;4987113;28;20229;-53
2023/10/29 02:33:51;;;;;;;2.07;0.40;;;;;;;16.81;42.56;150288.75;5001301;28;20263;-51
2023/10/29 02:36:18;;;;;;;0.63;0.30;;;;;;;16.83;42.27;150294.97;4987466;28;20838;-51
2023/10/29 02:38:44;;;;;;;1.00;0.30;;;;;;;17.12;41.39;150363.78;4976781;28;20223;-50
2023/10/29 02:41:14;;;;;;;1.83;0.40;;;;;;;16.95;42.11;150323.75;4981316;28;20250;-55
2023/10/29 02:43:41;;;;;;;0.60;0.33;;;;;;;16.91;42.69;150312.47;4998744;28;20235;-52
2023/10/29 02:46:08;;;;;;;1.00;0.40;;;;;;;16.99;42.39;150332.53;5005138;28;20250;-51
2023/10/29 02:48:35;;;;;;;0.60;0.30;;;;;;;17.01;41.84;150337.53;4967483;28;20241;-51
2023/10/29 02:51:02;;;;;;;0.83;0.40;;;;;;;16.96;42.33;150326.25;4987659;28;20244;-53
2023/10/29 02:53:29;;;;;;;0.60;0.40;;;;;;;16.87;42.94;150302.47;4996476;28;20249;-54
2023/10/29 02:55:58;;;;;;;1.97;0.43;;;;;;;16.95;41.59;150322.47;4984995;28;20235;-54
2023/10/29 02:58:26;;;;;;;0.50;0.30;;;;;;;17.00;42.28;150335.03;4987406;28;20592;-52
2023/10/29 03:00:52;;;;;;;0.53;0.33;;;;;;;17.04;41.93;150343.75;4984421;28;20273;-55
2023/10/29 03:03:19;;;;;;;0.90;0.40;;;;;;;17.04;42.25;150343.75;4986539;28;20235;-53
2023/10/29 03:05:45;;;;;;;2.23;0.40;;;;;;;16.91;42.58;150312.47;4966925;28;20231;-55
2023/10/29 03:08:12;;;;;;;1.23;0.43;;;;;;;16.76;43.13;150277.47;4991031;28;20263;-55
2023/10/29 03:10:39;;;;;;;1.60;0.50;;;;;;;16.88;42.29;150304.97;5002155;28;20226;-55
2023/10/29 03:13:05;;;;;;;2.37;0.30;;;;;;;16.92;41.66;150314.97;4987052;28;20239;-55
2023/10/29 03:15:33;;;;;;;0.57;0.40;;;;;;;17.01;41.16;150336.25;5000782;28;20649;-54
2023/10/29 03:18:00;;;;;;;0.83;0.40;;;;;;;16.84;42.07;150296.25;4987128;28;20325;-54
2023/10/29 03:20:26;;;;;;;0.63;0.30;;;;;;;16.77;41.57;150278.75;4987185;28;20227;-54
2023/10/29 03:22:53;;;;;;;0.50;0.30;;;;;;;16.90;41.45;150311.25;4967992;28;20293;-53
2023/10/29 03:25:19;;;;;;;2.50;0.40;;;;;;;16.84;41.38;150296.25;4987067;28;20227;-53
2023/10/29 03:27:50;;;;;;;1.30;0.40;;;;;;;16.86;41.26;150301.25;4984418;28;20227;-54
2023/10/29 03:30:17;;;;;;;1.00;0.37;;;;;;;16.94;40.77;150319.97;5002762;28;20235;-54
2023/10/29 03:32:45;;;;;;;0.30;0.30;;;;;;;16.87;40.59;150303.75;4984027;28;20224;-53
2023/10/29 03:35:12;;;;;;;1.00;0.40;;;;;;;16.83;41.52;150293.75;4983901;28;20228;-55
2023/10/29 03:37:40;;;;;;;0.63;0.30;;;;;;;16.90;41.10;150309.97;5000616;28;20574;-54
2023/10/29 03:40:08;;;;;;;1.43;0.40;;;;;;;16.76;41.71;150276.22;4975185;28;20284;-54
2023/10/29 03:42:35;;;;;;;0.40;0.40;;;;;;;16.66;42.08;150253.72;4990829;28;20683;-54
2023/10/29 03:45:03;;;;;;;0.50;0.30;;;;;;;16.64;41.46;150248.72;4987091;28;20287;-53
2023/10/29 03:47:29;;;;;;;0.53;0.43;;;;;;;16.55;41.97;150226.22;5003432;28;20232;-55
2023/10/29 03:49:57;;;;;;;0.70;0.37;;;;;;;16.56;41.94;150227.44;4981911;28;20315;-53
2023/10/29 03:52:24;;;;;;;0.57;0.33;;;;;;;16.51;42.55;150216.22;4978205;28;20302;-53
2023/10/29 03:54:51;;;;;;;1.97;0.40;;;;;;;16.68;41.63;150258.72;4968263;28;20250;-52
2023/10/29 03:57:18;;;;;;;1.13;0.30;;;;;;;16.76;41.66;150276.22;4997862;28;20699;-56
2023/10/29 03:59:44;;;;;;;3.03;0.40;;;;;;;16.61;42.33;150239.94;4991403;28;20251;-54
2023/10/29 04:02:11;;;;;;;1.23;0.40;;;;;;;16.56;42.31;150227.44;4994079;28;20707;-55
2023/10/29 04:04:37;;;;;;;0.50;0.30;;;;;;;16.44;42.74;150198.72;5005283;28;20231;-54
2023/10/29 04:07:06;;;;;;;1.30;0.50;;;;;;;16.48;42.44;150208.72;4997784;28;20236;-54
2023/10/29 04:09:33;;;;;;;1.47;0.40;;;;;;;16.54;41.72;150223.72;5005216;28;20253;-55
2023/10/29 04:12:00;;;;;;;1.00;0.40;;;;;;;16.56;41.50;150228.72;5008177;28;20323;-54
2023/10/29 04:14:27;;;;;;;1.10;0.30;;;;;;;16.53;41.84;150221.22;5006370;28;20292;-52
2023/10/29 04:16:53;;;;;;;1.00;0.30;;;;;;;16.57;41.57;150231.22;4979644;28;20660;-52
2023/10/29 04:19:20;;;;;;;0.80;0.40;;;;;;;16.55;42.25;150226.22;5008350;28;20338;-54
2023/10/29 04:21:46;;;;;;;0.63;0.43;;;;;;;16.46;42.80;150204.94;5002897;28;20726;-53
2023/10/29 04:24:14;;;;;;;1.03;0.47;;;;;;;16.56;42.35;150228.72;4993070;28;20265;-53
2023/10/29 04:26:41;;;;;;;0.97;0.43;;;;;;;16.51;42.19;150217.44;4988027;28;20691;-54
2023/10/29 04:29:08;;;;;;;1.00;0.40;;;;;;;16.44;43.06;150198.72;4999253;28;20239;-52
2023/10/29 04:31:34;;;;;;;0.93;0.40;;;;;;;16.38;43.02;150186.22;5228549;22;20226;-55
2023/10/29 04:34:01;;;;;;;1.60;0.50;;;;;;;16.42;43.66;150195.00;5051363;28;20701;-55
2023/10/29 04:36:27;;;;;;;0.47;0.43;;;;;;;16.42;43.35;150195.00;5052951;28;20773;-55
2023/10/29 04:38:54;;;;;;;1.27;0.70;;;;;;;16.34;44.01;150176.22;5035873;28;20698;-52
2023/10/29 04:41:22;;;;;;;2.63;0.50;;;;;;;16.29;44.96;150163.72;5065490;28;20288;-52
2023/10/29 04:43:48;;;;;;;0.70;0.40;;;;;;;16.18;45.08;150137.50;5034966;28;20243;-52
2023/10/29 04:46:15;;;;;;;0.77;0.40;;;;;;;16.12;44.80;150121.22;5039291;28;20228;-53
2023/10/29 04:48:43;;;;;;;2.57;0.30;;;;;;;16.07;45.14;150111.22;5034435;28;20588;-53
2023/10/29 04:51:10;;;;;;;1.17;0.50;;;;;;;16.22;44.88;150147.50;5025852;28;20596;-55
2023/10/29 04:53:37;;;;;;;0.70;0.30;;;;;;;16.12;45.50;150121.22;5030765;28;20218;-55
2023/10/29 04:56:04;;;;;;;2.90;0.60;;;;;;;16.37;45.99;150182.50;5051242;28;20225;-55
2023/10/29 04:58:32;;;;;;;0.67;0.30;;;;;;;16.23;46.09;150150.00;5036690;28;20226;-55
2023/10/29 05:00:59;;;;;;;1.37;0.47;;;;;;;16.14;47.22;150127.50;5049055;28;20543;-55
2023/10/29 05:03:27;;;;;;;0.93;0.50;;;;;;;16.03;47.97;150101.22;5047831;28;20238;-54
2023/10/29 05:05:54;;;;;;;2.03;0.30;;;;;;;15.92;50.70;150075.00;5044528;28;20222;-55
2023/10/29 05:08:21;;;;;;;3.30;0.47;;;;;;;15.93;48.36;150077.50;5039811;28;20226;-54
2023/10/29 05:10:47;;;;;;;2.03;0.50;;;;;;;16.18;48.76;150136.22;5042518;28;20227;-52
2023/10/29 05:13:14;;;;;;;1.30;0.40;;;;;;;16.05;48.69;150106.22;5046409;28;20297;-55
2023/10/29 05:15:42;;;;;;;0.87;0.50;;;;;;;15.99;49.33;150091.22;5044044;28;20228;-53
2023/10/29 05:18:08;;;;;;;1.60;0.50;;;;;;;16.04;47.94;150102.50;5041346;28;20239;-55
2023/10/29 05:20:37;;;;;;;3.47;0.50;;;;;;;16.08;49.53;150113.72;5030400;28;20216;-52
2023/10/29 05:23:03;;;;;;;1.97;0.57;;;;;;;16.05;49.70;150106.22;5045888;28;20215;-53
2023/10/29 05:25:30;;;;;;;0.83;0.50;;;;;;;16.01;48.83;150096.22;5046229;28;20237;-53
2023/10/29 05:27:58;;;;;;;0.50;0.50;;;;;;;16.09;49.89;150115.00;5044104;28;20237;-53
2023/10/29 05:30:25;;;;;;;1.30;0.40;;;;;;;16.20;48.07;150141.22;5046390;28;20260;-53
2023/10/29 05:32:53;;;;;;;3.00;0.50;;;;;;;15.99;49.60;150091.22;5034938;28;20264;-52
2023/10/29 05:35:21;;;;;;;1.00;0.60;;;;;;;15.89;50.23;150066.28;5045385;28;20324;-55
2023/10/29 05:37:51;;;;;;;1.60;0.73;;;;;;;15.56;56.94;149987.47;5040444;28;20685;-53
2023/10/29 05:40:18;;;;;;;1.40;0.70;;;;;;;15.23;57.54;149907.56;5045462;28;20222;-55
2023/10/29 05:42:48;;;;;;;1.43;0.80;;;;;;;14.86;59.36;149817.63;5048038;28;20629;-53
2023/10/29 05:45:14;;;;;;;1.57;0.67;;;;;;;14.43;60.81;149715.16;5041888;28;20270;-54
2023/10/29 05:47:41;;;;;;;2.10;0.87;;;;;;;14.42;61.97;149712.69;5041784;28;20258;-52
2023/10/29 05:50:10;;;;;;;4.00;1.13;;;;;;;14.21;63.11;149660.28;5045801;28;20240;-52
2023/10/29 05:52:37;;;;;;;6.00;1.30;;;;;;;13.90;66.15;149585.38;5024106;28;20232;-54
2023/10/29 05:55:05;;;;;;;2.77;0.70;;;;;;;13.77;69.48;149554.19;5038483;28;20711;-53
2023/10/29 05:57:31;;;;;;;3.07;0.70;;;;;;;13.62;71.28;149519.25;5035230;28;20233;-54
2023/10/29 05:59:58;;;;;;;3.63;1.37;;;;;;;13.51;71.63;149491.78;5031593;28;20284;-55
2023/10/29 06:02:25;;;;;;;1.57;0.90;;;;;;;13.43;74.34;149474.31;5040814;28;20292;-55
2023/10/29 06:04:51;;;;;;;3.43;1.10;;;;;;;13.36;73.60;149455.53;5043405;28;20245;-55
2023/10/29 06:07:19;;;;;;;4.27;1.00;;;;;;;13.26;75.64;149431.84;5045485;28;20248;-55
2023/10/29 06:09:48;;;;;;;1.60;0.90;;;;;;;13.20;73.85;149416.88;5042354;28;20767;-55
2023/10/29 06:12:14;;;;;;;2.67;1.03;;;;;;;13.12;78.14;149399.41;5045489;28;20588;-50
2023/10/29 06:14:45;;;;;;;1.10;0.80;;;;;;;13.10;79.45;149394.44;5042158;28;20288;-51
2023/10/29 06:17:11;;;;;;;1.27;0.60;;;;;;;13.05;78.51;149380.72;5039087;28;20259;-50
2023/10/29 06:19:38;;;;;;;3.07;1.03;;;;;;;12.97;79.60;149363.25;5040046;28;20223;-52
2023/10/29 06:22:06;;;;;;;3.13;0.97;;;;;;;12.87;84.93;149338.31;5039211;28;20232;-53
2023/10/29 06:24:34;;;;;;;0.77;0.60;;;;;;;12.82;86.47;149327.06;5038335;28;20228;-53
2023/10/29 06:27:02;;;;;;;0.97;0.73;;;;;;;12.78;83.49;149317.09;5046439;28;20285;-54
2023/10/29 06:29:28;;;;;;;2.93;0.80;;;;;;;12.62;88.78;149277.22;5044871;28;20220;-53
2023/10/29 06:31:55;;;;;;;2.93;1.20;;;;;;;12.46;84.11;149239.81;5029143;28;20692;-53
2023/10/29 06:34:22;;;;;;;3.10;1.40;;;;;;;12.46;88.85;149238.53;5038647;28;20223;-51
2023/10/29 06:36:49;;;;;;;2.50;1.20;;;;;;;12.35;87.89;149212.38;5024443;28;20235;-51
2023/10/29 06:39:16;;;;;;;1.97;0.93;;;;;;;12.29;90.76;149198.63;5031808;28;20305;-54
2023/10/29 06:41:44;;;;;;;1.37;1.00;;;;;;;12.19;93.57;149173.72;5038979;28;20242;-54
2023/10/29 06:44:11;;;;;;;4.20;1.37;;;;;;;12.14;95.54;149162.50;5044082;28;20567;-54
2023/10/29 06:46:37;;;;;;;2.10;0.87;;;;;;;12.08;98.95;149148.78;5042643;28;20717;-52
2023/10/29 06:49:04;;;;;;;3.10;1.37;;;;;;;11.96;100.00;149120.06;5034924;28;20712;-52
2023/10/29 06:51:31;;;;;;;3.40;1.10;;;;;;;11.87;100.00;149096.38;5035939;28;20723;-52
2023/10/29 06:53:58;;;;;;;1.50;1.10;;;;;;;11.82;100.00;149085.16;5034805;28;21016;-54
2023/10/29 06:56:25;;;;;;;6.37;1.20;;;;;;;11.74;100.00;149066.47;5044390;28;20234;-52
2023/10/29 06:58:53;;;;;;;1.67;1.00;;;;;;;11.76;100.00;149070.19;5042545;28;20223;-53
2023/10/29 07:01:20;;;;;;;2.23;1.10;;;;;;;11.78;100.00;149075.16;5036351;28;21127;-54
2023/10/29 07:03:46;;;;;;;3.37;1.17;;;;;;;11.85;100.00;149091.41;5040826;28;20558;-54
2023/10/29 07:06:14;;;;;;;5.77;0.90;;;;;;;11.85;100.00;149091.41;5044661;28;20275;-54
2023/10/29 07:08:40;;;;;;;2.77;0.80;;;;;;;11.83;100.00;149087.63;5040540;28;20218;-54
2023/10/29 07:11:07;;;;;;;3.70;1.00;;;;;;;11.85;100.00;149092.63;5039337;28;20228;-54
2023/10/29 07:13:34;;;;;;;7.17;1.03;;;;;;;11.80;100.00;149080.16;5024151;28;20338;-52
2023/10/29 07:16:04;;;;;;;11.10;7.47;;;;;;;11.78;100.00;149075.16;5043502;28;20290;-52
2023/10/29 07:18:31;;;;;;;3.57;1.50;;;;;;;11.71;100.00;149059.00;5044609;28;20589;-51
2023/10/29 07:20:57;;;;;;;4.00;1.50;;;;;;;11.75;100.00;149068.97;5033305;28;20226;-51
2023/10/29 07:23:24;;;;;;;5.47;1.33;;;;;;;11.73;100.00;149062.72;5042798;28;20233;-52
2023/10/29 07:25:50;;;;;;;12.80;11.60;;;;;;;11.73;100.00;149062.72;5040588;28;20338;-52
2023/10/29 07:28:17;;;;;;;17.47;13.43;;;;;;;11.75;100.00;149067.69;5044439;28;20359;-51
2023/10/29 07:30:44;;;;;;;28.77;23.10;;;;;;;11.76;100.00;149071.47;5041381;28;20223;-51
2023/10/29 07:33:12;;;;;;;12.20;5.57;;;;;;;11.77;100.00;149072.69;5038329;28;20668;-52
2023/10/29 07:35:39;;;;;;;14.37;11.30;;;;;;;11.78;100.00;149075.16;5033355;28;20285;-53
2023/10/29 07:38:07;;;;;;;6.70;2.10;;;;;;;11.74;100.00;149065.19;5046987;28;20233;-52
2023/10/29 07:40:35;;;;;;;7.00;4.43;;;;;;;11.59;100.00;149030.34;5047571;28;20326;-52
2023/10/29 07:43:02;;;;;;;4.03;1.70;;;;;;;11.71;100.00;149059.00;5046351;28;20223;-53
2023/10/29 07:45:28;;;;;;;2.73;1.00;;;;;;;11.78;100.00;149075.16;5047826;28;20230;-53
2023/10/29 07:47:55;;;;;;;5.63;0.87;;;;;;;11.90;100.00;149103.88;5037628;28;20277;-52
2023/10/29 07:50:23;;;;;;;6.13;1.70;;;;;;;11.92;100.00;149108.84;5046429;28;20229;-51
2023/10/29 07:52:50;;;;;;;5.13;0.90;;;;;;;11.92;100.00;149108.84;5035652;28;20227;-52
2023/10/29 07:55:18;;;;;;;6.13;1.13;;;;;;;11.95;100.00;149117.56;5041074;28;20239;-52
2023/10/29 07:57:50;;;;;;;3.90;1.60;;;;;;;12.01;100.00;149130.06;5042782;28;20233;-54
2023/10/29 08:00:18;;;;;;;4.00;1.40;;;;;;;12.00;100.00;149127.56;5041445;28;20231;-53
2023/10/29 08:02:50;;;;;;;4.87;1.30;;;;;;;11.95;100.00;149117.56;5042931;28;20230;-51
2023/10/29 08:05:17;;;;;;;3.80;1.73;;;;;;;12.00;100.00;149127.56;5034185;28;20235;-53
2023/10/29 08:07:44;;;;;;;4.43;1.83;;;;;;;12.03;100.00;149135.06;5043004;28;20223;-53
2023/10/29 08:10:12;;;;;;;5.13;1.90;;;;;;;12.06;100.00;149143.81;5046806;28;20231;-53
2023/10/29 08:12:39;;;;;;;6.13;1.30;;;;;;;12.12;100.00;149156.28;5044291;28;20219;-54
2023/10/29 08:15:06;;;;;;;3.10;1.30;;;;;;;12.13;100.00;149158.78;5042534;28;20308;-52
2023/10/29 08:17:33;;;;;;;6.53;1.73;;;;;;;12.13;100.00;149158.78;5032924;28;20219;-51
2023/10/29 08:19:59;;;;;;;5.90;1.70;;;;;;;12.16;100.00;149167.47;5047366;28;20284;-53
2023/10/29 08:22:26;;;;;;;6.03;1.77;;;;;;;12.05;100.00;149140.03;5061726;28;20228;-54
2023/10/29 08:24:54;;;;;;;2.47;1.30;;;;;;;12.15;100.00;149163.75;5038998;28;20273;-51
2023/10/29 08:27:21;;;;;;;3.20;1.00;;;;;;;12.14;100.00;149162.50;5038419;28;20321;-52
2023/10/29 08:29:49;;;;;;;2.00;1.10;;;;;;;12.17;100.00;149169.97;5044018;28;20717;-52
2023/10/29 08:32:16;;;;;;;3.60;1.43;;;;;;;12.26;100.00;149191.16;5045563;28;20236;-52
2023/10/29 08:34:42;;;;;;;5.17;1.40;;;;;;;12.23;100.00;149184.94;5044218;28;20617;-52
2023/10/29 08:37:10;;;;;;;13.47;9.37;;;;;;;12.31;100.00;149202.38;5040498;28;20236;-52
2023/10/29 08:39:37;;;;;;;5.43;3.40;;;;;;;12.44;100.00;149233.53;5041092;28;20218;-52
2023/10/29 08:42:05;;;;;;;1.80;1.30;;;;;;;12.44;100.00;149234.81;5038862;28;20694;-52
2023/10/29 08:44:32;;;;;;;3.73;1.30;;;;;;;12.62;100.00;149277.22;5044132;28;20297;-52
2023/10/29 08:46:58;;;;;;;5.43;1.00;;;;;;;12.75;100.00;149309.59;5046069;28;20241;-52
2023/10/29 08:49:25;;;;;;;3.40;1.13;;;;;;;12.82;100.00;149325.84;5039368;28;20595;-55
2023/10/29 08:51:52;;;;;;;1.93;0.77;;;;;;;12.90;100.00;149345.78;5043669;28;20238;-52
2023/10/29 08:54:19;;;;;;;2.43;0.80;;;;;;;13.16;100.00;149406.91;5037732;28;20226;-54
2023/10/29 08:56:45;;;;;;;2.10;0.87;;;;;;;13.45;98.44;149476.81;5034963;28;20244;-53
2023/10/29 08:59:13;;;;;;;1.97;0.70;;;;;;;13.60;100.00;149514.25;5046397;28;20234;-51
2023/10/29 09:01:40;;;;;;;1.33;0.80;;;;;;;13.72;100.00;149542.94;5043980;28;20239;-53
2023/10/29 09:04:08;;;;;;;1.77;1.03;;;;;;;13.81;100.00;149564.13;5044864;28;20232;-54
2023/10/29 09:06:37;;;;;;;3.60;0.80;;;;;;;13.92;100.00;149590.38;5042426;28;20932;-53
2023/10/29 09:09:04;;;;;;;1.50;0.70;;;;;;;14.02;99.38;149616.56;5041693;28;20220;-54
2023/10/29 09:11:31;;;;;;;3.07;0.70;;;;;;;14.09;95.56;149632.81;5026304;28;20323;-51
2023/10/29 09:13:58;;;;;;;2.63;0.80;;;;;;;14.09;100.00;149632.81;5043781;28;20227;-52
2023/10/29 09:16:26;;;;;;;1.20;0.70;;;;;;;14.05;100.00;149621.56;5047560;28;20234;-52
2023/10/29 09:18:52;;;;;;;1.23;0.70;;;;;;;14.02;100.00;149615.34;5043606;28;20233;-52
2023/10/29 09:21:19;;;;;;;2.53;0.77;;;;;;;13.94;100.00;149595.38;5046698;28;20237;-53
2023/10/29 09:23:46;;;;;;;1.13;0.60;;;;;;;13.97;100.00;149602.84;5044228;28;20311;-54
2023/10/29 09:26:12;;;;;;;1.57;0.60;;;;;;;14.06;96.67;149624.06;5046216;28;20240;-52
2023/10/29 09:28:39;;;;;;;1.60;0.70;;;;;;;14.25;100.00;149670.28;5046559;28;20330;-53
2023/10/29 09:31:06;;;;;;;1.97;1.50;;;;;;;14.25;99.83;149671.50;5045059;28;20310;-54
2023/10/29 09:33:33;;;;;;;4.17;2.00;;;;;;;14.31;97.49;149685.22;5034190;28;20233;-53
2023/10/29 09:36:00;;;;;;;3.17;2.27;;;;;;;14.36;95.21;149697.69;5026160;28;20232;-53
2023/10/29 09:38:27;;;;;;;4.70;2.70;;;;;;;14.49;96.80;149728.94;5042078;28;20305;-54
2023/10/29 09:40:55;;;;;;;2.10;1.20;;;;;;;14.60;92.20;149755.13;5035817;28;20237;-53
2023/10/29 09:43:27;;;;;;;1.33;0.90;;;;;;;14.69;93.52;149776.38;5034300;28;20230;-52
2023/10/29 09:45:54;;;;;;;1.77;0.90;;;;;;;14.72;97.24;149785.16;5039572;28;20233;-53
2023/10/29 09:48:21;;;;;;;4.43;1.00;;;;;;;14.59;98.69;149753.91;5032697;28;20713;-55
2023/10/29 09:50:49;;;;;;;2.77;0.97;;;;;;;14.70;92.51;149780.16;5041121;28;20221;-55
2023/10/29 09:53:16;;;;;;;3.33;1.90;;;;;;;14.81;89.75;149805.13;5038118;28;20266;-55
2023/10/29 09:55:43;;;;;;;3.20;1.50;;;;;;;14.78;94.85;149798.91;5023863;28;20234;-55
2023/10/29 09:58:10;;;;;;;1.13;0.80;;;;;;;14.86;86.98;149818.84;5024492;28;20249;-55
2023/10/29 10:00:38;;;;;;;3.77;0.90;;;;;;;14.98;82.41;149846.31;5029805;28;20261;-55
2023/10/29 10:03:05;;;;;;;1.77;0.80;;;;;;;14.99;82.18;149850.09;5044960;28;20270;-53
2023/10/29 10:05:32;;;;;;;2.30;0.90;;;;;;;15.12;80.81;149881.31;5045881;28;20591;-53
2023/10/29 10:08:01;;;;;;;1.37;0.70;;;;;;;15.25;77.14;149912.56;5042369;28;20240;-55
2023/10/29 10:10:38;;;;;;;1.73;0.67;;;;;;;15.38;75.67;149943.75;5036714;28;20581;-53
2023/10/29 10:13:05;;;;;;;1.93;0.90;;;;;;;15.53;73.84;149979.97;5020215;28;20976;-52
2023/10/29 10:15:32;;;;;;;1.30;0.60;;;;;;;15.58;73.87;149992.47;5029071;28;21108;-52
2023/10/29 10:18:00;;;;;;;3.00;0.80;;;;;;;15.65;72.60;150009.97;5040598;28;20246;-53
2023/10/29 10:20:28;;;;;;;1.70;0.70;;;;;;;15.94;67.57;150080.00;5039446;28;20233;-52
2023/10/29 10:22:58;;;;;;;0.77;0.50;;;;;;;16.13;66.96;150125.00;5041644;28;20229;-54
2023/10/29 10:25:28;;;;;;;1.30;0.50;;;;;;;16.28;66.02;150161.22;5028371;28;20579;-53
2023/10/29 10:27:56;;;;;;;1.10;0.47;;;;;;;16.40;67.43;150188.72;5021126;28;20590;-53
2023/10/29 10:30:29;;;;;;;1.10;0.50;;;;;;;16.46;65.13;150203.72;5024676;28;20235;-52
2023/10/29 10:33:08;;;;;;;2.13;0.53;;;;;;;16.69;62.32;150259.97;5040706;28;20233;-55
2023/10/29 10:35:40;;;;;;;3.27;0.60;;;;;;;16.67;64.02;150256.22;5041780;28;20302;-54
2023/10/29 10:38:07;;;;;;;3.63;0.50;;;;;;;16.85;63.06;150298.75;5046105;28;20943;-55
2023/10/29 10:40:35;;;;;;;0.43;0.30;;;;;;;17.09;60.34;150356.28;5042947;28;20218;-52
2023/10/29 10:43:02;;;;;;;1.03;0.50;;;;;;;17.13;61.74;150366.28;5043832;28;20233;-55
2023/10/29 10:45:31;;;;;;;3.00;0.50;;;;;;;17.10;60.84;150360.03;5044157;28;20296;-52
2023/10/29 10:48:00;;;;;;;4.17;0.70;;;;;;;17.32;59.17;150411.31;5041259;28;20230;-53
2023/10/29 10:50:28;;;;;;;1.87;0.57;;;;;;;17.41;57.05;150433.81;5028420;28;20229;-53
2023/10/29 10:52:56;;;;;;;2.20;0.40;;;;;;;17.46;59.42;150446.31;5025027;28;20235;-53
2023/10/29 10:55:25;;;;;;;1.70;0.60;;;;;;;17.37;59.31;150423.81;5043944;28;20230;-54
2023/10/29 10:57:53;;;;;;;1.33;0.50;;;;;;;17.59;57.50;150476.34;5041463;28;20594;-52
2023/10/29 11:00:21;;;;;;;1.20;0.40;;;;;;;17.74;56.67;150512.59;5045947;28;20643;-53
2023/10/29 11:02:50;;;;;;;2.43;0.67;;;;;;;17.73;56.52;150511.38;5033390;28;20341;-52
2023/10/29 11:05:17;;;;;;;3.47;0.60;;;;;;;17.73;55.92;150511.38;5037666;28;20794;-55
2023/10/29 11:07:45;;;;;;;3.90;0.53;;;;;;;17.75;57.13;150516.38;5021041;28;20230;-55
2023/10/29 11:10:14;;;;;;;4.20;2.33;;;;;;;17.76;56.09;150517.63;5045646;28;20232;-53
2023/10/29 11:12:41;;;;;;;3.50;1.60;;;;;;;17.84;54.95;150538.91;5042725;28;20234;-55
2023/10/29 11:15:17;;;;;;;2.87;0.60;;;;;;;17.80;57.34;150528.91;5043371;28;20240;-55
2023/10/29 11:17:51;;;;;;;0.53;0.50;;;;;;;17.66;56.58;150495.09;5041165;28;20567;-55
2023/10/29 11:21:02;;;;;;;2.50;0.40;;;;;;;17.58;57.74;150473.84;5044479;28;20275;-55
2023/10/29 11:23:34;;;;;;;2.83;0.80;;;;;;;17.47;57.68;150447.59;5002711;28;20304;-54
2023/10/29 11:26:21;;;;;;;1.40;0.60;;;;;;;17.64;57.58;150488.88;5034139;28;20238;-55